createdAt,value
2023-03-13T00:00:15.466Z,93881.88
2023-03-13T00:01:18.199Z,93885.91
2023-03-13T00:02:14.851Z,93889.78
2023-03-13T00:03:12.069Z,93883.47
2023-03-13T00:04:08.811Z,93885.97
2023-03-13T00:05:05.818Z,93891.22
2023-03-13T00:06:02.501Z,93893.34
2023-03-13T00:06:59.130Z,93875.59
2023-03-13T00:07:55.690Z,93892.09
2023-03-13T00:08:52.751Z,93887.16
2023-03-13T00:09:49.626Z,93889.75
2023-03-13T00:10:46.192Z,93885.31
2023-03-13T00:11:44.029Z,93882.16
2023-03-13T00:12:40.690Z,93827.06
2023-03-13T00:13:37.846Z,93888.97
2023-03-13T00:14:34.589Z,93885.31
2023-03-13T00:15:31.366Z,93893.16
2023-03-13T00:16:29.155Z,93898.63
2023-03-13T00:17:25.767Z,93897.84
2023-03-13T00:18:22.345Z,93904.91
2023-03-13T00:19:18.914Z,93904.38
2023-03-13T00:20:17.596Z,93905.69
2023-03-13T00:21:15.368Z,93911.69
2023-03-13T00:22:12.012Z,93912.50
2023-03-13T00:23:08.614Z,93913.78
2023-03-13T00:24:05.438Z,93911.69
2023-03-13T00:25:02.036Z,93913.28
2023-03-13T00:26:00.587Z,93908.06
2023-03-13T00:26:58.617Z,93902.56
2023-03-13T00:27:55.305Z,93919.00
2023-03-13T00:28:53.181Z,93913.78
2023-03-13T00:29:50.858Z,93906.72
2023-03-13T00:30:47.546Z,93880.31
2023-03-13T00:31:44.212Z,93926.34
2023-03-13T00:32:46.207Z,93913.25
2023-03-13T00:33:45.801Z,93909.84
2023-03-13T00:34:42.398Z,93882.94
2023-03-13T00:35:39.036Z,93905.41
2023-03-13T00:36:36.314Z,93901.75
2023-03-13T00:37:32.925Z,93906.19
2023-03-13T00:38:31.722Z,93899.69
2023-03-13T00:39:28.289Z,93908.00
2023-03-13T00:40:24.848Z,93901.22
2023-03-13T00:41:24.242Z,93896.53
2023-03-13T00:42:22.575Z,93908.81
2023-03-13T00:43:19.156Z,93904.91
2023-03-13T00:44:15.813Z,93917.44
2023-03-13T00:45:12.411Z,93904.38
2023-03-13T00:46:10.453Z,93899.91
2023-03-13T00:47:07.553Z,93912.72
2023-03-13T00:48:04.280Z,93899.16
2023-03-13T00:49:00.897Z,93910.13
2023-03-13T00:49:57.497Z,93906.75
2023-03-13T00:50:54.627Z,93870.94
2023-03-13T00:51:51.223Z,93902.53
2023-03-13T00:52:47.794Z,93873.03
2023-03-13T00:53:44.983Z,93907.78
2023-03-13T00:54:41.588Z,93853.44
2023-03-13T00:55:38.201Z,93898.09
2023-03-13T00:56:34.915Z,93899.69
2023-03-13T00:57:31.524Z,93900.47
2023-03-13T00:58:29.867Z,93900.47
2023-03-13T00:59:26.453Z,93882.16
2023-03-13T01:00:23.108Z,93898.91
2023-03-13T01:01:32.370Z,93904.84
2023-03-13T01:02:29.007Z,93898.59
2023-03-13T01:03:25.862Z,93897.00
2023-03-13T01:04:22.577Z,93902.50
2023-03-13T01:05:19.232Z,93898.59
2023-03-13T01:06:18.113Z,93898.09
2023-03-13T01:07:14.721Z,93895.72
2023-03-13T01:08:11.426Z,93859.88
2023-03-13T01:09:11.209Z,93905.38
2023-03-13T01:10:08.416Z,93903.31
2023-03-13T01:11:11.549Z,93904.91
2023-03-13T01:12:08.574Z,93884.75
2023-03-13T01:13:06.808Z,93895.75
2023-03-13T01:14:06.833Z,93779.25
2023-03-13T01:15:03.815Z,93854.75
2023-03-13T01:16:07.788Z,93895.50
2023-03-13T01:17:04.547Z,93898.38
2023-03-13T01:18:01.147Z,93888.69
2023-03-13T01:19:02.079Z,93853.19
2023-03-13T01:19:58.681Z,93896.28
2023-03-13T01:20:55.257Z,93898.91
2023-03-13T01:21:51.912Z,93897.56
2023-03-13T01:22:48.499Z,93897.56
2023-03-13T01:23:45.506Z,93846.31
2023-03-13T01:24:42.450Z,93897.56
2023-03-13T01:25:40.651Z,93899.63
2023-03-13T01:26:37.429Z,93899.13
2023-03-13T01:27:34.165Z,93894.47
2023-03-13T01:28:30.856Z,93854.75
2023-03-13T01:29:27.527Z,93902.28
2023-03-13T01:30:24.273Z,93905.94
2023-03-13T01:31:27.536Z,93904.66
2023-03-13T01:32:24.190Z,93909.09
2023-03-13T01:33:20.840Z,93911.16
2023-03-13T01:34:17.574Z,93906.72
2023-03-13T01:35:15.324Z,93910.66
2023-03-13T01:36:12.759Z,93922.16
2023-03-13T01:37:09.431Z,93914.31
2023-03-13T01:38:06.133Z,93917.97
2023-03-13T01:39:02.863Z,93912.50
2023-03-13T01:39:59.450Z,93922.94
2023-03-13T01:40:56.040Z,93921.13
2023-03-13T01:41:52.655Z,93870.13
2023-03-13T01:42:57.465Z,93885.03
2023-03-13T01:43:55.636Z,93847.91
2023-03-13T01:44:55.297Z,93919.50
2023-03-13T01:45:57.923Z,93918.44
2023-03-13T01:46:54.643Z,93924.16
2023-03-13T01:47:51.401Z,93916.81
2023-03-13T01:49:11.352Z,93917.84
2023-03-13T01:50:08.437Z,93898.00
2023-03-13T01:51:10.353Z,93921.50
2023-03-13T01:52:31.112Z,93909.00
2023-03-13T01:53:31.354Z,93902.19
2023-03-13T01:54:40.762Z,93923.13
2023-03-13T01:55:37.507Z,93945.31
2023-03-13T01:56:55.186Z,93913.47
2023-03-13T01:57:53.953Z,93913.69
2023-03-13T01:58:52.371Z,93911.63
2023-03-13T01:59:57.268Z,93915.50
2023-03-13T02:00:54.103Z,93919.47
2023-03-13T02:01:53.162Z,93886.00
2023-03-13T02:02:53.567Z,93877.91
2023-03-13T02:03:50.704Z,93904.81
2023-03-13T02:04:55.833Z,93912.66
2023-03-13T02:05:52.640Z,93918.34
2023-03-13T02:06:53.411Z,93922.53
2023-03-13T02:08:08.303Z,93912.59
2023-03-13T02:09:22.555Z,93923.28
2023-03-13T02:10:19.838Z,93923.28
2023-03-13T02:11:20.797Z,93881.19
2023-03-13T02:12:29.377Z,93878.28
2023-03-13T02:13:26.116Z,93881.16
2023-03-13T02:14:28.064Z,93898.66
2023-03-13T02:15:27.470Z,93923.75
2023-03-13T02:16:24.387Z,93901.56
2023-03-13T02:17:21.116Z,93886.94
2023-03-13T02:18:17.923Z,93930.91
2023-03-13T02:19:31.438Z,93933.06
2023-03-13T02:20:28.104Z,93931.50
2023-03-13T02:21:34.675Z,93934.63
2023-03-13T02:22:39.964Z,93926.25
2023-03-13T02:23:49.978Z,93936.22
2023-03-13T02:24:58.594Z,93942.28
2023-03-13T02:25:56.195Z,93945.16
2023-03-13T02:26:54.505Z,93945.66
2023-03-13T02:27:55.139Z,93946.16
2023-03-13T02:28:51.867Z,93943.75
2023-03-13T02:29:49.638Z,93948.44
2023-03-13T02:30:48.033Z,93946.59
2023-03-13T02:31:47.122Z,93945.53
2023-03-13T02:32:45.856Z,93960.09
2023-03-13T02:33:45.726Z,93911.94
2023-03-13T02:34:44.285Z,93962.41
2023-03-13T02:35:42.934Z,93965.25
2023-03-13T02:36:40.561Z,93929.72
2023-03-13T02:37:37.454Z,93972.34
2023-03-13T02:38:40.467Z,93969.00
2023-03-13T02:39:42.425Z,93980.22
2023-03-13T02:40:42.496Z,93979.69
2023-03-13T02:41:42.291Z,93975.19
2023-03-13T02:42:42.099Z,93933.31
2023-03-13T02:43:38.983Z,93977.69
2023-03-13T02:44:40.090Z,93974.28
2023-03-13T02:45:36.766Z,93979.69
2023-03-13T02:46:45.404Z,93979.72
2023-03-13T02:47:42.349Z,93980.72
2023-03-13T02:48:47.734Z,93979.22
2023-03-13T02:49:44.359Z,93981.88
2023-03-13T02:50:40.964Z,93991.88
2023-03-13T02:51:45.304Z,93990.50
2023-03-13T02:52:46.842Z,93985.50
2023-03-13T02:53:44.868Z,93984.47
2023-03-13T02:54:44.900Z,93980.00
2023-03-13T02:55:42.427Z,93978.63
2023-03-13T02:56:43.787Z,93973.34
2023-03-13T02:57:40.362Z,93975.91
2023-03-13T02:58:49.778Z,93970.38
2023-03-13T02:59:46.869Z,93975.63
2023-03-13T03:00:43.753Z,93980.13
2023-03-13T03:01:40.408Z,93960.19
2023-03-13T03:02:37.025Z,93984.28
2023-03-13T03:03:37.074Z,93964.41
2023-03-13T03:04:33.709Z,93971.34
2023-03-13T03:05:30.398Z,93947.78
2023-03-13T03:06:27.041Z,93950.69
2023-03-13T03:07:23.620Z,93988.69
2023-03-13T03:08:20.201Z,93984.78
2023-03-13T03:09:17.518Z,93987.66
2023-03-13T03:10:14.599Z,93994.91
2023-03-13T03:11:11.781Z,93999.09
2023-03-13T03:12:08.774Z,93994.19
2023-03-13T03:13:05.367Z,93970.31
2023-03-13T03:14:02.356Z,93992.03
2023-03-13T03:14:59.150Z,94000.09
2023-03-13T03:15:55.792Z,94006.09
2023-03-13T03:16:52.456Z,94006.09
2023-03-13T03:17:49.149Z,94009.28
2023-03-13T03:18:45.730Z,94011.94
2023-03-13T03:19:42.368Z,94016.66
2023-03-13T03:20:38.953Z,93972.97
2023-03-13T03:21:35.740Z,94018.78
2023-03-13T03:22:32.384Z,94025.06
2023-03-13T03:23:29.241Z,94021.56
2023-03-13T03:24:25.891Z,94016.66
2023-03-13T03:25:22.467Z,94018.78
2023-03-13T03:26:21.916Z,94012.78
2023-03-13T03:27:18.532Z,93987.03
2023-03-13T03:28:15.140Z,94012.94
2023-03-13T03:29:11.704Z,93961.25
2023-03-13T03:30:08.923Z,94015.09
2023-03-13T03:31:07.327Z,94006.19
2023-03-13T03:32:03.972Z,94011.91
2023-03-13T03:33:03.344Z,94000.19
2023-03-13T03:34:00.494Z,93964.56
2023-03-13T03:34:57.110Z,94006.19
2023-03-13T03:36:00.054Z,94007.72
2023-03-13T03:36:56.767Z,94001.41
2023-03-13T03:37:53.375Z,94016.63
2023-03-13T03:38:50.493Z,93946.22
2023-03-13T03:39:47.216Z,93952.38
2023-03-13T03:40:43.951Z,94033.13
2023-03-13T03:41:40.668Z,94042.34
2023-03-13T03:42:37.326Z,94043.69
2023-03-13T03:43:34.153Z,94008.56
2023-03-13T03:44:30.778Z,94044.34
2023-03-13T03:45:27.610Z,94040.78
2023-03-13T03:46:24.890Z,94047.00
2023-03-13T03:47:21.484Z,94031.75
2023-03-13T03:48:18.114Z,94045.06
2023-03-13T03:49:14.706Z,94040.84
2023-03-13T03:50:11.582Z,94040.13
2023-03-13T03:51:08.262Z,94051.06
2023-03-13T03:52:05.120Z,94019.13
2023-03-13T03:53:01.865Z,94043.06
2023-03-13T03:53:58.514Z,94044.94
2023-03-13T03:54:55.071Z,94048.03
2023-03-13T03:55:52.175Z,94049.75
2023-03-13T03:56:48.740Z,94053.72
2023-03-13T03:57:45.344Z,94044.84
2023-03-13T03:58:42.002Z,94055.09
2023-03-13T03:59:38.631Z,94018.97
2023-03-13T04:00:35.199Z,94063.75
2023-03-13T04:01:31.862Z,94057.09
2023-03-13T04:02:28.493Z,94062.28
2023-03-13T04:03:25.602Z,94062.50
2023-03-13T04:04:22.319Z,94064.06
2023-03-13T04:05:19.019Z,94057.50
2023-03-13T04:06:15.730Z,94054.59
2023-03-13T04:07:12.348Z,94050.91
2023-03-13T04:08:09.461Z,94064.53
2023-03-13T04:09:06.045Z,94064.00
2023-03-13T04:10:03.656Z,94066.09
2023-03-13T04:11:01.932Z,94068.75
2023-03-13T04:11:58.506Z,94067.84
2023-03-13T04:12:55.153Z,94073.34
2023-03-13T04:13:51.769Z,94076.97
2023-03-13T04:14:48.426Z,94039.19
2023-03-13T04:15:45.302Z,94059.09
2023-03-13T04:16:41.939Z,94085.78
2023-03-13T04:17:38.955Z,94031.31
2023-03-13T04:18:35.602Z,94077.63
2023-03-13T04:19:32.221Z,94076.47
2023-03-13T04:20:28.946Z,94077.03
2023-03-13T04:21:25.620Z,94078.09
2023-03-13T04:22:22.188Z,94077.88
2023-03-13T04:23:18.791Z,94048.31
2023-03-13T04:24:15.442Z,94083.59
2023-03-13T04:25:12.115Z,94085.41
2023-03-13T04:26:08.691Z,94052.72
2023-03-13T04:27:06.663Z,94023.72
2023-03-13T04:28:03.330Z,94091.31
2023-03-13T04:28:59.898Z,94090.22
2023-03-13T04:29:56.510Z,94081.06
2023-03-13T04:30:57.206Z,94093.06
2023-03-13T04:31:54.031Z,94099.03
2023-03-13T04:32:51.254Z,94104.75
2023-03-13T04:33:47.879Z,94101.97
2023-03-13T04:34:44.439Z,94098.41
2023-03-13T04:35:41.153Z,94105.72
2023-03-13T04:36:37.866Z,94110.91
2023-03-13T04:37:34.563Z,94110.97
2023-03-13T04:38:31.184Z,94099.66
2023-03-13T04:39:27.772Z,94108.31
2023-03-13T04:40:24.423Z,94118.44
2023-03-13T04:41:21.022Z,94123.94
2023-03-13T04:42:17.566Z,94119.22
2023-03-13T04:43:14.203Z,94130.41
2023-03-13T04:44:10.815Z,94126.75
2023-03-13T04:45:10.728Z,94065.63
2023-03-13T04:46:07.388Z,94125.63
2023-03-13T04:47:04.706Z,94048.28
2023-03-13T04:48:01.345Z,94129.41
2023-03-13T04:48:58.166Z,94120.09
2023-03-13T04:49:54.741Z,94125.56
2023-03-13T04:50:51.647Z,94121.38
2023-03-13T04:51:48.348Z,94121.38
2023-03-13T04:52:44.882Z,94124.47
2023-03-13T04:53:41.457Z,94123.44
2023-03-13T04:54:38.114Z,94127.38
2023-03-13T04:55:34.712Z,94124.22
2023-03-13T04:56:42.850Z,94120.84
2023-03-13T04:57:40.073Z,94110.09
2023-03-13T04:58:36.786Z,94069.16
2023-03-13T04:59:33.624Z,94132.19
2023-03-13T05:00:30.154Z,94131.81
2023-03-13T05:01:26.818Z,94129.75
2023-03-13T05:02:23.516Z,94132.00
2023-03-13T05:03:20.154Z,94132.69
2023-03-13T05:04:17.108Z,94129.03
2023-03-13T05:05:13.763Z,94125.34
2023-03-13T05:06:10.403Z,94116.09
2023-03-13T05:07:07.050Z,94121.69
2023-03-13T05:08:03.779Z,94124.97
2023-03-13T05:09:00.818Z,94135.63
2023-03-13T05:09:57.395Z,94134.09
2023-03-13T05:10:53.987Z,94132.84
2023-03-13T05:11:50.826Z,94139.69
2023-03-13T05:12:47.460Z,94145.53
2023-03-13T05:13:44.083Z,94081.66
2023-03-13T05:14:40.769Z,94149.09
2023-03-13T05:15:37.436Z,94153.13
2023-03-13T05:16:34.054Z,94044.91
2023-03-13T05:17:30.714Z,94156.28
2023-03-13T05:18:27.493Z,94155.50
2023-03-13T05:19:24.200Z,94150.03
2023-03-13T05:20:20.927Z,94157.38
2023-03-13T05:21:17.523Z,94144.56
2023-03-13T05:22:14.169Z,94175.50
2023-03-13T05:23:10.883Z,94150.69
2023-03-13T05:24:07.662Z,94149.53
2023-03-13T05:25:05.926Z,94120.75
2023-03-13T05:26:02.792Z,94138.84
2023-03-13T05:26:59.425Z,94155.94
2023-03-13T05:27:56.049Z,94151.25
2023-03-13T05:28:52.611Z,94154.94
2023-03-13T05:29:49.231Z,94147.63
2023-03-13T05:30:45.869Z,94106.78
2023-03-13T05:31:42.501Z,94143.97
2023-03-13T05:32:39.237Z,94158.34
2023-03-13T05:33:35.872Z,94154.47
2023-03-13T05:34:32.408Z,94154.16
2023-03-13T05:35:29.107Z,94155.44
2023-03-13T05:36:25.838Z,94161.22
2023-03-13T05:37:22.551Z,94164.03
2023-03-13T05:38:19.218Z,94178.19
2023-03-13T05:39:15.816Z,94175.56
2023-03-13T05:40:13.083Z,94132.09
2023-03-13T05:41:09.657Z,94180.97
2023-03-13T05:42:06.375Z,94132.47
2023-03-13T05:43:03.120Z,94193.03
2023-03-13T05:43:59.721Z,94188.88
2023-03-13T05:44:56.326Z,94182.63
2023-03-13T05:45:52.897Z,94188.63
2023-03-13T05:46:49.662Z,94165.09
2023-03-13T05:47:46.336Z,94185.84
2023-03-13T05:48:42.979Z,94193.47
2023-03-13T05:49:39.671Z,94188.78
2023-03-13T05:50:36.323Z,94190.63
2023-03-13T05:51:32.879Z,94185.16
2023-03-13T05:52:29.499Z,94192.94
2023-03-13T05:53:26.122Z,94176.44
2023-03-13T05:54:22.728Z,94192.47
2023-03-13T05:55:19.784Z,94181.78
2023-03-13T05:56:16.370Z,94186.75
2023-03-13T05:57:13.037Z,94185.16
2023-03-13T05:58:09.616Z,94185.44
2023-03-13T05:59:06.170Z,94186.25
2023-03-13T06:00:04.178Z,94187.28
2023-03-13T06:01:12.454Z,94186.81
2023-03-13T06:02:09.061Z,94185.28
2023-03-13T06:03:05.630Z,94193.94
2023-03-13T06:04:02.563Z,94196.03
2023-03-13T06:04:59.404Z,94173.78
2023-03-13T06:05:59.715Z,94195.78
2023-03-13T06:06:56.284Z,94199.97
2023-03-13T06:07:52.983Z,94192.88
2023-03-13T06:08:51.533Z,94188.66
2023-03-13T06:09:48.126Z,94189.41
2023-03-13T06:10:44.678Z,94193.88
2023-03-13T06:11:41.722Z,94188.09
2023-03-13T06:12:38.332Z,94196.50
2023-03-13T06:13:34.951Z,94181.56
2023-03-13T06:14:31.517Z,94190.50
2023-03-13T06:15:28.092Z,94159.88
2023-03-13T06:16:24.741Z,94202.84
2023-03-13T06:17:21.389Z,94150.72
2023-03-13T06:18:17.956Z,94231.09
2023-03-13T06:19:14.561Z,94210.94
2023-03-13T06:20:11.829Z,94202.00
2023-03-13T06:21:08.456Z,94201.72
2023-03-13T06:22:05.153Z,94201.44
2023-03-13T06:23:01.669Z,94201.47
2023-03-13T06:23:58.219Z,94191.75
2023-03-13T06:24:54.830Z,94196.91
2023-03-13T06:25:51.788Z,94086.00
2023-03-13T06:26:50.143Z,94149.81
2023-03-13T06:27:46.831Z,94180.44
2023-03-13T06:28:43.441Z,94185.59
2023-03-13T06:29:40.048Z,94181.84
2023-03-13T06:30:36.695Z,94182.09
2023-03-13T06:31:33.546Z,94175.06
2023-03-13T06:32:30.303Z,94179.22
2023-03-13T06:33:27.063Z,94176.84
2023-03-13T06:34:23.689Z,94181.78
2023-03-13T06:35:20.305Z,94180.25
2023-03-13T06:36:16.903Z,94188.13
2023-03-13T06:37:13.509Z,94190.22
2023-03-13T06:38:11.029Z,94189.72
2023-03-13T06:39:08.388Z,94194.72
2023-03-13T06:40:06.339Z,94189.50
2023-03-13T06:41:02.991Z,94190.69
2023-03-13T06:41:59.732Z,94194.41
2023-03-13T06:42:56.367Z,94202.25
2023-03-13T06:43:52.963Z,94209.66
2023-03-13T06:44:49.576Z,94206.81
2023-03-13T06:45:46.641Z,94209.72
2023-03-13T06:46:43.396Z,94210.72
2023-03-13T06:47:40.057Z,94206.50
2023-03-13T06:48:36.678Z,94201.69
2023-03-13T06:49:33.422Z,94188.34
2023-03-13T06:50:31.638Z,94194.41
2023-03-13T06:51:28.193Z,94201.84
2023-03-13T06:52:37.469Z,94198.81
2023-03-13T06:53:37.964Z,94209.66
2023-03-13T06:54:34.662Z,94207.91
2023-03-13T06:55:31.453Z,94175.97
2023-03-13T06:56:28.089Z,94188.88
2023-03-13T06:57:24.748Z,94209.75
2023-03-13T06:58:32.120Z,94206.53
2023-03-13T06:59:29.334Z,94204.25
2023-03-13T07:00:26.141Z,94171.56
2023-03-13T07:01:22.943Z,94198.53
2023-03-13T07:02:19.613Z,94200.78
2023-03-13T07:03:16.255Z,94193.38
2023-03-13T07:04:13.735Z,94191.41
2023-03-13T07:05:10.395Z,94195.72
2023-03-13T07:06:08.314Z,94199.34
2023-03-13T07:07:05.385Z,94199.38
2023-03-13T07:08:02.032Z,94197.81
2023-03-13T07:08:58.843Z,94155.03
2023-03-13T07:09:55.445Z,94200.56
2023-03-13T07:10:53.177Z,94201.25
2023-03-13T07:11:49.886Z,94197.69
2023-03-13T07:12:46.558Z,94193.84
2023-03-13T07:13:43.192Z,94187.59
2023-03-13T07:14:39.806Z,94199.25
2023-03-13T07:15:36.417Z,94193.28
2023-03-13T07:16:33.084Z,94194.03
2023-03-13T07:17:29.785Z,94194.47
2023-03-13T07:18:26.494Z,94170.78
2023-03-13T07:19:23.153Z,94177.16
2023-03-13T07:20:19.827Z,94190.94
2023-03-13T07:21:16.495Z,94189.13
2023-03-13T07:22:13.222Z,94192.69
2023-03-13T07:23:10.034Z,94194.25
2023-03-13T07:24:07.175Z,94179.44
2023-03-13T07:25:05.269Z,94186.00
2023-03-13T07:26:07.270Z,94190.41
2023-03-13T07:27:07.612Z,94182.59
2023-03-13T07:28:04.845Z,94194.06
2023-03-13T07:29:01.661Z,94184.94
2023-03-13T07:29:58.321Z,94185.78
2023-03-13T07:30:55.267Z,94190.16
2023-03-13T07:31:51.953Z,94194.31
2023-03-13T07:32:48.961Z,94186.72
2023-03-13T07:33:46.292Z,94188.84
2023-03-13T07:34:44.751Z,94198.28
2023-03-13T07:35:41.361Z,94190.06
2023-03-13T07:36:38.229Z,94182.56
2023-03-13T07:37:34.866Z,94153.41
2023-03-13T07:38:31.512Z,94193.34
2023-03-13T07:39:28.150Z,94192.34
2023-03-13T07:40:24.706Z,94196.97
2023-03-13T07:41:21.496Z,94115.69
2023-03-13T07:42:18.066Z,94192.53
2023-03-13T07:43:14.658Z,94187.66
2023-03-13T07:44:11.815Z,94196.09
2023-03-13T07:45:09.568Z,94201.63
2023-03-13T07:46:08.075Z,94189.84
2023-03-13T07:47:04.930Z,94188.31
2023-03-13T07:48:01.523Z,94183.34
2023-03-13T07:48:58.411Z,94156.53
2023-03-13T07:49:55.157Z,94143.91
2023-03-13T07:50:52.198Z,94157.44
2023-03-13T07:51:51.094Z,94180.00
2023-03-13T07:52:47.695Z,94185.66
2023-03-13T07:53:47.269Z,94187.84
2023-03-13T07:54:43.852Z,94185.56
2023-03-13T07:55:40.489Z,94184.34
2023-03-13T07:56:37.125Z,94191.19
2023-03-13T07:57:33.852Z,94192.84
2023-03-13T07:58:33.210Z,94204.66
2023-03-13T07:59:30.395Z,94181.50
2023-03-13T08:00:27.163Z,94166.97
2023-03-13T08:01:29.841Z,94183.94
2023-03-13T08:02:27.249Z,94193.31
2023-03-13T08:03:26.324Z,94192.72
2023-03-13T08:04:23.202Z,94182.94
2023-03-13T08:05:19.850Z,94176.72
2023-03-13T08:06:23.431Z,94180.53
2023-03-13T08:07:20.117Z,94146.63
2023-03-13T08:08:16.780Z,94188.72
2023-03-13T08:09:13.474Z,94180.34
2023-03-13T08:10:10.671Z,94178.38
2023-03-13T08:11:10.156Z,94181.44
2023-03-13T08:12:07.679Z,94187.84
2023-03-13T08:13:04.530Z,94187.91
2023-03-13T08:14:01.196Z,94192.28
2023-03-13T08:14:58.016Z,94181.25
2023-03-13T08:16:04.508Z,94191.22
2023-03-13T08:17:01.146Z,94199.09
2023-03-13T08:17:58.023Z,94184.94
2023-03-13T08:18:56.625Z,94187.06
2023-03-13T08:19:53.267Z,94184.69
2023-03-13T08:20:50.422Z,94181.28
2023-03-13T08:21:47.135Z,94180.28
2023-03-13T08:22:43.826Z,94177.38
2023-03-13T08:23:40.857Z,94183.22
2023-03-13T08:24:37.515Z,94180.63
2023-03-13T08:25:34.162Z,94168.91
2023-03-13T08:26:31.457Z,94186.94
2023-03-13T08:27:29.994Z,94147.81
2023-03-13T08:28:26.680Z,94185.66
2023-03-13T08:29:23.254Z,94190.09
2023-03-13T08:30:20.121Z,94190.75
2023-03-13T08:31:19.677Z,94188.84
2023-03-13T08:32:18.349Z,94188.06
2023-03-13T08:33:15.079Z,94177.03
2023-03-13T08:34:12.725Z,94179.97
2023-03-13T08:35:09.675Z,94177.72
2023-03-13T08:36:13.605Z,94180.38
2023-03-13T08:37:10.262Z,94185.34
2023-03-13T08:38:07.066Z,94182.59
2023-03-13T08:39:11.538Z,94187.75
2023-03-13T08:40:11.327Z,94106.72
2023-03-13T08:41:08.889Z,94178.13
2023-03-13T08:42:05.597Z,94171.47
2023-03-13T08:43:02.170Z,94178.28
2023-03-13T08:43:58.823Z,94176.00
2023-03-13T08:44:55.491Z,94167.59
2023-03-13T08:45:56.386Z,94169.69
2023-03-13T08:46:53.032Z,94163.19
2023-03-13T08:47:53.501Z,94145.63
2023-03-13T08:48:51.656Z,94132.75
2023-03-13T08:49:48.420Z,94176.28
2023-03-13T08:50:46.313Z,94172.81
2023-03-13T08:51:45.390Z,94169.69
2023-03-13T08:52:45.098Z,94142.53
2023-03-13T08:53:43.849Z,94156.78
2023-03-13T08:54:40.533Z,94169.44
2023-03-13T08:55:37.194Z,94101.25
2023-03-13T08:56:34.931Z,94122.78
2023-03-13T08:57:31.611Z,94181.88
2023-03-13T08:58:28.776Z,94179.34
2023-03-13T08:59:26.037Z,94183.44
2023-03-13T09:00:23.480Z,94182.13
2023-03-13T09:01:21.410Z,94183.69
2023-03-13T09:02:20.373Z,94179.44
2023-03-13T09:03:17.850Z,94184.22
2023-03-13T09:04:14.488Z,94179.94
2023-03-13T09:05:11.186Z,94188.63
2023-03-13T09:06:08.974Z,94189.00
2023-03-13T09:07:05.752Z,94177.03
2023-03-13T09:08:02.358Z,94187.19
2023-03-13T09:08:59.114Z,94159.31
2023-03-13T09:09:55.697Z,94186.09
2023-03-13T09:11:07.407Z,94125.44
2023-03-13T09:12:04.301Z,94194.41
2023-03-13T09:13:01.096Z,94173.16
2023-03-13T09:13:59.439Z,94135.53
2023-03-13T09:14:56.185Z,94177.16
2023-03-13T09:15:57.705Z,94180.09
2023-03-13T09:16:54.445Z,94181.06
2023-03-13T09:17:51.225Z,94181.41
2023-03-13T09:18:48.658Z,94145.75
2023-03-13T09:19:59.194Z,94180.09
2023-03-13T09:20:56.698Z,94180.53
2023-03-13T09:21:53.398Z,94185.97
2023-03-13T09:22:50.023Z,94180.94
2023-03-13T09:23:47.654Z,94192.59
2023-03-13T09:24:45.854Z,94193.94
2023-03-13T09:25:42.519Z,94191.75
2023-03-13T09:26:42.662Z,94191.16
2023-03-13T09:27:43.516Z,94193.81
2023-03-13T09:28:42.178Z,94193.06
2023-03-13T09:29:41.633Z,94181.88
2023-03-13T09:30:38.476Z,94186.41
2023-03-13T09:31:35.164Z,94148.28
2023-03-13T09:32:31.953Z,94184.34
2023-03-13T09:33:28.646Z,94144.91
2023-03-13T09:34:25.532Z,94151.59
2023-03-13T09:35:22.229Z,94185.91
2023-03-13T09:36:22.315Z,94184.84
2023-03-13T09:37:19.377Z,94187.03
2023-03-13T09:38:20.170Z,94179.50
2023-03-13T09:39:16.819Z,94171.13
2023-03-13T09:40:17.332Z,94125.31
2023-03-13T09:41:22.627Z,94167.31
2023-03-13T09:42:24.471Z,94171.53
2023-03-13T09:43:39.653Z,94171.22
2023-03-13T09:44:54.867Z,94173.56
2023-03-13T09:45:55.015Z,94164.19
2023-03-13T09:46:54.498Z,94168.25
2023-03-13T09:47:56.781Z,94170.19
2023-03-13T09:48:59.361Z,94167.81
2023-03-13T09:50:04.996Z,94178.16
2023-03-13T09:51:36.655Z,94174.94
2023-03-13T09:52:41.091Z,94005.94
2023-03-13T09:53:45.578Z,94173.84
2023-03-13T09:55:04.593Z,94177.72
2023-03-13T09:56:05.294Z,94169.56
2023-03-13T09:57:31.409Z,94170.13
2023-03-13T09:58:30.127Z,94175.25
2023-03-13T09:59:26.693Z,94170.88
2023-03-13T10:00:40.660Z,94175.31
2023-03-13T10:01:40.485Z,94170.91
2023-03-13T10:02:37.603Z,94163.28
2023-03-13T10:03:40.641Z,94126.78
2023-03-13T10:04:48.074Z,94164.38
2023-03-13T10:05:50.819Z,94149.59
2023-03-13T10:06:48.973Z,94153.53
2023-03-13T10:07:45.640Z,94136.13
2023-03-13T10:08:42.330Z,94133.16
2023-03-13T10:09:40.921Z,94159.91
2023-03-13T10:10:46.744Z,94147.25
2023-03-13T10:12:04.276Z,94148.94
2023-03-13T10:13:10.978Z,94150.19
2023-03-13T10:14:20.985Z,94064.47
2023-03-13T10:15:34.028Z,94132.63
2023-03-13T10:16:39.066Z,94118.81
2023-03-13T10:17:37.931Z,94132.06
2023-03-13T10:18:34.591Z,94137.03
2023-03-13T10:19:42.292Z,94132.84
2023-03-13T10:20:40.474Z,94138.91
2023-03-13T10:21:38.206Z,94133.94
2023-03-13T10:22:34.945Z,94121.44
2023-03-13T10:23:48.996Z,94134.22
2023-03-13T10:24:45.541Z,94136.06
2023-03-13T10:25:42.311Z,94110.44
2023-03-13T10:26:39.068Z,94127.63
2023-03-13T10:27:50.777Z,94127.88
2023-03-13T10:28:48.463Z,94126.09
2023-03-13T10:29:45.286Z,94105.00
2023-03-13T10:30:54.374Z,94117.41
2023-03-13T10:32:03.517Z,94117.03
2023-03-13T10:33:18.468Z,94098.69
2023-03-13T10:34:15.738Z,93999.91
2023-03-13T10:35:20.393Z,94108.06
2023-03-13T10:36:19.769Z,94078.81
2023-03-13T10:37:20.656Z,94107.28
2023-03-13T10:38:23.412Z,94108.88
2023-03-13T10:39:23.350Z,94113.47
2023-03-13T10:40:26.346Z,94103.44
2023-03-13T10:41:28.046Z,94098.09
2023-03-13T10:42:31.444Z,94097.06
2023-03-13T10:43:30.606Z,94103.09
2023-03-13T10:44:33.714Z,94105.94
2023-03-13T10:45:36.180Z,94102.19
2023-03-13T10:46:33.941Z,94108.47
2023-03-13T10:47:35.140Z,94057.66
2023-03-13T10:48:37.613Z,94095.28
2023-03-13T10:49:34.130Z,94114.09
2023-03-13T10:50:34.918Z,94092.91
2023-03-13T10:51:40.586Z,94090.88
2023-03-13T10:52:49.186Z,94094.19
2023-03-13T10:53:45.937Z,94091.28
2023-03-13T10:54:45.607Z,94095.44
2023-03-13T10:55:44.703Z,94092.41
2023-03-13T10:56:41.420Z,94071.38
2023-03-13T10:57:38.270Z,94090.19
2023-03-13T10:58:41.319Z,94089.84
2023-03-13T10:59:45.799Z,94093.94
2023-03-13T11:00:44.534Z,94086.94
2023-03-13T11:01:44.860Z,94076.91
2023-03-13T11:02:44.879Z,94025.94
2023-03-13T11:03:44.969Z,94084.44
2023-03-13T11:04:42.111Z,94069.09
2023-03-13T11:05:43.310Z,94079.44
2023-03-13T11:06:39.964Z,94072.06
2023-03-13T11:07:40.674Z,94019.78
2023-03-13T11:08:37.858Z,94055.06
2023-03-13T11:09:34.506Z,94067.41
2023-03-13T11:10:32.490Z,94070.56
2023-03-13T11:11:31.218Z,94072.03
2023-03-13T11:12:28.017Z,94068.56
2023-03-13T11:13:41.943Z,94070.41
2023-03-13T11:14:38.664Z,94061.75
2023-03-13T11:15:57.564Z,94061.31
2023-03-13T11:17:15.511Z,94064.28
2023-03-13T11:18:24.172Z,94055.88
2023-03-13T11:20:02.463Z,94056.66
2023-03-13T11:21:15.662Z,94038.28
2023-03-13T11:22:27.898Z,94064.09
2023-03-13T11:23:32.205Z,94060.97
2023-03-13T11:24:53.134Z,94053.88
2023-03-13T11:26:02.701Z,94062.34
2023-03-13T11:27:08.573Z,94060.53
2023-03-13T11:28:17.324Z,94040.00
2023-03-13T11:29:36.599Z,94047.25
2023-03-13T11:30:43.321Z,94050.78